Time;durP1;ratioP1;P1;durP2;ratioP2;P2;SDS_P1;SDS_P2;PMS_P1;PMS_P2;Temp;Humidity;BMP_temperature;BMP_pressure;BME280_temperature;BME280_humidity;BME280_pressure;Samples;Min_cycle;Max_cycle;Signal;HPM_P1;HPM_P2
2022/01/12 00:00:50;;;;;;;5.70;3.73;;;1.90;99.90;;;;;;5032910;28;20905;-62
2022/01/12 00:03:17;;;;;;;6.80;3.90;;;1.90;99.90;;;;;;5032472;28;20869;-63
2022/01/12 00:05:44;;;;;;;6.63;3.60;;;1.90;99.90;;;;;;5032177;28;20496;-62
2022/01/12 00:08:12;;;;;;;7.47;3.73;;;1.90;99.90;;;;;;5032640;28;20532;-62
2022/01/12 00:10:39;;;;;;;7.63;4.03;;;1.80;99.90;;;;;;5032064;28;20864;-62
2022/01/12 00:13:06;;;;;;;8.07;3.73;;;1.80;99.90;;;;;;5032557;28;20453;-62
2022/01/12 00:15:33;;;;;;;6.17;3.67;;;1.80;99.90;;;;;;5032217;28;20475;-62
2022/01/12 00:17:59;;;;;;;8.33;3.53;;;1.70;99.90;;;;;;5032040;28;20989;-62
2022/01/12 00:20:26;;;;;;;7.90;4.27;;;1.70;99.90;;;;;;5032210;28;20896;-62
2022/01/12 00:22:53;;;;;;;7.10;4.30;;;1.80;99.90;;;;;;5032090;28;20443;-62
2022/01/12 00:25:31;;;;;;;9.33;4.07;;;1.80;99.90;;;;;;5031999;28;21089;-62
2022/01/12 00:33:26;;;;;;;5.00;3.23;;;1.90;99.90;;;;;;5032177;28;21118;-62
2022/01/12 00:35:55;;;;;;;5.27;3.23;;;1.90;99.90;;;;;;5031847;28;20456;-62
2022/01/12 00:38:25;;;;;;;4.30;3.10;;;1.90;99.90;;;;;;5031923;28;20854;-62
2022/01/12 00:40:55;;;;;;;4.17;2.73;;;2.00;99.90;;;;;;5032050;28;20473;-62
2022/01/12 00:43:25;;;;;;;6.40;3.20;;;2.00;99.90;;;;;;5031805;28;20445;-62
2022/01/12 00:45:52;;;;;;;5.10;3.23;;;2.00;99.90;;;;;;5031782;28;20867;-62
2022/01/12 00:48:19;;;;;;;4.90;2.93;;;2.00;99.90;;;;;;5031796;28;20507;-62
2022/01/12 00:50:47;;;;;;;5.50;3.20;;;2.10;99.90;;;;;;5032026;28;20527;-62
2022/01/12 00:53:14;;;;;;;8.47;3.10;;;2.10;94.90;;;;;;5031754;28;20445;-62
2022/01/12 00:55:40;;;;;;;6.00;2.60;;;2.20;1.00;;;;;;5032090;28;20808;-62
2022/01/12 00:58:09;;;;;;;2.77;2.40;;;2.20;1.00;;;;;;5031937;28;20449;-62
2022/01/12 01:00:35;;;;;;;6.67;3.47;;;2.20;3.90;;;;;;5031274;28;20473;-62
2022/01/12 01:03:02;;;;;;;7.03;3.30;;;2.30;1.00;;;;;;5031467;28;20449;-62
2022/01/12 01:05:32;;;;;;;3.63;2.90;;;2.30;1.00;;;;;;5031554;28;20477;-62
2022/01/12 01:07:59;;;;;;;5.87;3.30;;;2.20;12.80;;;;;;5031576;28;20460;-62
2022/01/12 01:10:36;;;;;;;5.70;3.23;;;2.20;64.10;;;;;;5031482;28;20473;-62
2022/01/12 01:13:03;;;;;;;4.60;3.10;;;2.20;73.20;;;;;;5031576;28;20455;-62
2022/01/12 01:15:53;;;;;;;12.73;3.70;;;2.20;22.00;;;;;;5031217;28;20465;-62
2022/01/12 01:26:37;;;;;;;4.83;3.37;;;2.20;71.30;;;;;;5031323;28;20452;-62
2022/01/12 01:29:05;;;;;;;3.83;2.80;;;2.20;99.90;;;;;;5031864;28;20441;-62
2022/01/12 01:31:34;;;;;;;6.60;3.23;;;2.30;98.80;;;;;;5031711;28;20452;-62
2022/01/12 01:34:07;;;;;;;5.93;3.40;;;2.30;89.70;;;;;;5031331;28;20446;-62
2022/01/12 01:36:35;;;;;;;5.37;3.27;;;2.20;97.80;;;;;;5031562;28;20580;-62
2022/01/12 01:39:01;;;;;;;4.10;3.20;;;2.30;99.90;;;;;;5031126;28;20449;-62
2022/01/12 01:41:28;;;;;;;4.70;2.60;;;2.30;93.80;;;;;;5031562;28;20819;-63
2022/01/12 01:44:20;;;;;;;4.03;2.77;;;2.30;64.30;;;;;;5031456;28;20871;-62
2022/01/12 01:55:04;;;;;;;6.47;3.43;;;2.30;99.90;;;;;;5034529;28;20556;-62
2022/01/12 01:57:31;;;;;;;3.90;2.53;;;2.30;99.90;;;;;;5034813;28;20531;-62
2022/01/12 01:59:58;;;;;;;6.00;3.47;;;2.30;99.90;;;;;;5034502;28;20472;-62
2022/01/12 02:02:26;;;;;;;4.20;3.10;;;2.30;99.90;;;;;;5034596;28;20449;-62
2022/01/12 02:04:53;;;;;;;5.13;3.53;;;2.30;99.90;;;;;;5034414;28;20492;-62
2022/01/12 02:07:20;;;;;;;4.73;3.17;;;2.30;99.90;;;;;;5034439;28;20943;-62
2022/01/12 02:09:47;;;;;;;5.77;3.53;;;2.30;99.90;;;;;;5034793;28;20480;-62
2022/01/12 02:12:13;;;;;;;5.40;2.87;;;2.30;99.90;;;;;;5034780;28;20457;-62
2022/01/12 02:14:40;;;;;;;5.03;2.93;;;2.30;99.90;;;;;;5034144;28;20999;-62
2022/01/12 02:17:16;;;;;;;6.97;3.10;;;2.30;99.90;;;;;;5034340;28;20449;-62
2022/01/12 02:19:54;;;;;;;6.47;3.20;;;2.30;99.90;;;;;;5034131;28;20476;-62
2022/01/12 02:36:13;;;;;;;4.77;3.27;;;2.20;99.90;;;;;;5033986;28;20464;-62
2022/01/12 02:41:26;;;;;;;4.97;3.20;;;2.10;99.90;;;;;;5034026;28;20447;-62
2022/01/12 02:55:05;;;;;;;5.17;3.23;;;2.20;99.90;;;;;;5033703;28;20448;-62
2022/01/12 02:57:32;;;;;;;5.00;3.10;;;2.20;97.80;;;;;;5033379;28;20448;-62
2022/01/12 03:00:08;;;;;;;3.30;2.97;;;2.30;94.80;;;;;;5033266;28;20465;-62
2022/01/12 03:02:37;;;;;;;4.73;3.47;;;2.20;99.90;;;;;;5033647;28;20452;-62
2022/01/12 03:05:25;;;;;;;8.37;3.07;;;2.30;99.90;;;;;;5033511;28;20480;-62
2022/01/12 03:07:53;;;;;;;7.90;3.20;;;2.30;99.90;;;;;;5033577;28;20862;-62
2022/01/12 03:10:22;;;;;;;5.03;3.10;;;2.30;99.90;;;;;;5033557;28;20472;-62
2022/01/12 03:12:49;;;;;;;7.50;3.50;;;2.30;99.90;;;;;;5033025;28;21031;-62
2022/01/12 03:15:15;;;;;;;5.67;3.17;;;2.30;99.90;;;;;;5033035;28;20449;-62
2022/01/12 03:17:42;;;;;;;5.33;3.60;;;2.30;98.90;;;;;;5032819;28;21025;-62
2022/01/12 03:20:10;;;;;;;7.73;3.40;;;2.40;85.90;;;;;;5033057;28;20469;-62
2022/01/12 03:22:38;;;;;;;5.97;3.50;;;2.40;94.10;;;;;;5032717;28;20453;-62
2022/01/12 03:25:06;;;;;;;6.33;3.57;;;2.40;47.10;;;;;;5033367;28;20551;-62
2022/01/12 03:27:34;;;;;;;9.67;4.40;;;2.40;30.80;;;;;;5032978;28;20509;-62
2022/01/12 03:30:00;;;;;;;8.30;3.50;;;2.40;48.00;;;;;;5032794;28;21245;-62
2022/01/12 03:32:34;;;;;;;5.07;3.30;;;2.40;45.80;;;;;;5032719;28;20452;-62
2022/01/12 03:35:10;;;;;;;7.20;3.93;;;2.50;1.00;;;;;;5032654;28;20928;-62
2022/01/12 03:37:42;;;;;;;7.43;3.00;;;2.50;1.00;;;;;;5032960;28;20506;-62
2022/01/12 03:40:10;;;;;;;4.33;3.30;;;2.60;1.00;;;;;;5032490;28;20556;-62
2022/01/12 03:42:39;;;;;;;4.60;3.17;;;2.70;1.00;;;;;;5032692;28;20460;-62
2022/01/12 03:45:07;;;;;;;6.77;3.80;;;2.80;1.00;;;;;;5032361;28;20476;-62
2022/01/12 03:47:33;;;;;;;9.57;3.70;;;2.80;1.00;;;;;;5032400;28;20457;-62
2022/01/12 03:50:00;;;;;;;7.70;3.50;;;2.90;1.00;;;;;;5032427;28;20523;-62
2022/01/12 03:52:27;;;;;;;6.43;3.70;;;2.90;1.00;;;;;;5032723;28;20449;-62
2022/01/12 03:54:53;;;;;;;7.63;4.70;;;2.90;1.00;;;;;;5032489;28;20934;-62
2022/01/12 03:57:20;;;;;;;6.77;4.03;;;2.80;1.00;;;;;;5032575;28;20445;-62
2022/01/12 03:59:49;;;;;;;9.10;3.83;;;2.70;1.00;;;;;;5032293;28;20472;-62
2022/01/12 04:02:15;;;;;;;5.33;3.70;;;2.70;1.00;;;;;;5032033;28;20723;-62
2022/01/12 04:05:06;;;;;;;5.23;3.87;;;2.60;1.00;;;;;;5032624;28;20488;-62
2022/01/12 04:10:14;;;;;;;6.63;3.67;;;2.60;84.80;;;;;;5031801;28;20448;-62
2022/01/12 04:12:40;;;;;;;6.93;4.97;;;2.60;85.10;;;;;;5032086;28;20500;-62
2022/01/12 04:15:09;;;;;;;6.57;4.50;;;2.60;1.00;;;;;;5032220;28;20452;-62
2022/01/12 04:17:36;;;;;;;7.70;4.67;;;2.60;1.70;;;;;;5031993;28;20453;-62
2022/01/12 04:20:03;;;;;;;9.17;4.43;;;2.50;23.10;;;;;;5032120;28;20472;-62
2022/01/12 04:25:14;;;;;;;7.23;4.30;;;2.60;1.00;;;;;;5032099;28;20526;-62
2022/01/12 04:27:41;;;;;;;7.50;3.90;;;2.60;3.50;;;;;;5032332;28;20499;-62
2022/01/12 04:30:10;;;;;;;7.33;4.13;;;2.60;1.00;;;;;;5031775;28;20469;-62
2022/01/12 04:32:41;;;;;;;8.10;4.77;;;2.60;28.80;;;;;;5031883;28;20449;-62
2022/01/12 04:35:08;;;;;;;8.00;4.07;;;2.60;21.90;;;;;;5031764;28;20460;-62
2022/01/12 04:37:35;;;;;;;9.53;4.53;;;2.60;17.70;;;;;;5031563;28;20939;-62
2022/01/12 04:40:02;;;;;;;7.20;4.47;;;2.60;1.00;;;;;;5031767;28;20472;-62
2022/01/12 04:42:29;;;;;;;7.87;4.30;;;2.60;1.00;;;;;;5031785;28;20449;-62
2022/01/12 04:45:01;;;;;;;6.60;4.40;;;2.60;12.10;;;;;;5032022;28;20453;-62
2022/01/12 04:47:47;;;;;;;5.77;4.20;;;2.50;3.70;;;;;;5031635;28;20456;-62
2022/01/12 04:50:13;;;;;;;7.43;4.70;;;2.50;35.90;;;;;;5031774;28;20648;-62
2022/01/12 04:52:41;;;;;;;6.13;4.20;;;2.60;8.90;;;;;;5032270;28;20506;-62
2022/01/12 04:55:08;;;;;;;8.33;4.50;;;2.60;32.60;;;;;;5031813;28;20457;-62
2022/01/12 04:57:35;;;;;;;6.53;4.70;;;2.60;24.70;;;;;;5031325;28;20453;-62
2022/01/12 05:00:07;;;;;;;7.40;5.17;;;2.60;1.80;;;;;;5031698;28;20481;-62
2022/01/12 05:08:15;;;;;;;14.73;5.30;;;2.60;34.20;;;;;;5031514;28;20474;-62
2022/01/12 05:13:26;;;;;;;7.83;5.33;;;2.60;50.30;;;;;;5031331;28;20432;-62
2022/01/12 05:15:54;;;;;;;8.30;4.63;;;2.60;90.10;;;;;;5031562;28;20468;-62
2022/01/12 05:18:22;;;;;;;6.33;4.53;;;2.60;99.90;;;;;;5031609;28;20449;-62
2022/01/12 05:20:49;;;;;;;7.83;4.97;;;2.60;99.90;;;;;;5031043;28;20465;-62
2022/01/12 05:23:15;;;;;;;6.87;4.67;;;2.60;99.90;;;;;;5033143;28;20476;-62
2022/01/12 05:25:46;;;;;;;7.70;4.43;;;2.60;99.90;;;;;;5035297;28;20956;-62
2022/01/12 05:28:12;;;;;;;6.67;4.43;;;2.60;99.90;;;;;;5035395;28;20471;-62
2022/01/12 05:30:40;;;;;;;7.47;5.10;;;2.60;99.90;;;;;;5035372;28;20469;-62
2022/01/12 05:33:07;;;;;;;8.77;5.10;;;2.60;99.90;;;;;;5035558;28;20507;-62
2022/01/12 05:35:35;;;;;;;8.50;5.30;;;2.60;99.90;;;;;;5032400;28;21221;-62
2022/01/12 05:38:03;;;;;;;7.33;4.70;;;2.60;99.90;;;;;;5036213;28;20445;-62
2022/01/12 05:40:31;;;;;;;8.67;5.30;;;2.60;99.90;;;;;;5035051;28;20468;-63
2022/01/12 05:43:00;;;;;;;7.93;5.10;;;2.70;99.90;;;;;;5034890;28;20514;-62
2022/01/12 05:45:27;;;;;;;9.80;5.13;;;2.70;58.70;;;;;;5030385;28;20487;-62
2022/01/12 05:50:51;;;;;;;8.07;5.13;;;2.70;1.00;;;;;;4987290;28;20534;-61
2022/01/12 05:53:18;;;;;;;9.93;5.60;;;2.80;1.00;;;;;;5034207;28;20453;-62
2022/01/12 05:55:45;;;;;;;11.20;5.93;;;2.80;1.00;;;;;;5034172;28;20445;-62
2022/01/12 05:58:12;;;;;;;9.83;6.00;;;2.90;1.00;;;;;;5034353;28;20452;-62
2022/01/12 06:00:38;;;;;;;9.20;4.97;;;3.00;1.00;;;;;;5033991;28;20563;-62
2022/01/12 06:03:05;;;;;;;8.57;5.10;;;2.90;1.00;;;;;;5034057;28;20457;-62
2022/01/12 06:05:32;;;;;;;9.33;5.87;;;2.90;1.00;;;;;;5034564;28;20452;-63
2022/01/12 06:08:00;;;;;;;9.60;5.37;;;2.80;1.00;;;;;;5034670;28;20452;-62
2022/01/12 06:10:28;;;;;;;8.90;4.97;;;2.80;1.00;;;;;;5034000;28;20519;-62
2022/01/12 06:12:55;;;;;;;8.40;4.97;;;2.80;1.00;;;;;;5033650;28;20464;-60
2022/01/12 06:15:22;;;;;;;10.10;5.60;;;2.80;1.00;;;;;;5033543;28;20522;-61
2022/01/12 06:17:48;;;;;;;9.93;5.00;;;2.80;1.00;;;;;;5030643;28;20457;-59
2022/01/12 06:20:15;;;;;;;10.20;4.60;;;2.80;1.00;;;;;;5030843;28;20477;-60
2022/01/12 06:22:42;;;;;;;11.90;5.07;;;2.80;1.00;;;;;;5033644;28;20804;-60
2022/01/12 06:25:14;;;;;;;9.07;5.53;;;2.90;1.00;;;;;;5033765;28;20860;-61
2022/01/12 06:27:49;;;;;;;10.30;5.50;;;3.00;1.00;;;;;;5035004;28;20942;-62
2022/01/12 06:31:10;;;;;;;11.13;5.43;;;3.10;1.00;;;;;;5034057;28;20928;-62
2022/01/12 06:33:14;;;;;;;12.73;5.80;;;3.10;1.00;;;;;;5035068;28;20446;-61
2022/01/12 06:35:41;;;;;;;10.83;5.70;;;3.10;1.00;;;;;;5044897;28;20206;-61
2022/01/12 06:38:08;;;;;;;8.90;5.60;;;3.00;1.00;;;;;;5033160;28;20214;-62
2022/01/12 06:40:36;;;;;;;9.27;5.73;;;3.00;1.00;;;;;;5032664;28;20527;-62
2022/01/12 06:43:03;;;;;;;11.13;5.47;;;3.00;1.00;;;;;;5033583;28;20499;-62
2022/01/12 06:45:30;;;;;;;9.67;5.67;;;3.10;1.00;;;;;;5033350;28;20445;-64
2022/01/12 06:47:56;;;;;;;9.27;5.50;;;3.00;1.00;;;;;;5032911;28;20485;-61
2022/01/12 06:50:23;;;;;;;8.43;5.63;;;3.00;1.00;;;;;;5033009;28;20469;-61
2022/01/12 06:52:50;;;;;;;9.03;5.50;;;3.10;1.00;;;;;;5032482;28;20526;-60
2022/01/12 06:55:16;;;;;;;12.13;5.97;;;3.00;1.00;;;;;;5033479;28;20305;-62
2022/01/12 06:57:44;;;;;;;15.50;6.97;;;3.10;1.00;;;;;;5032899;28;20207;-63
2022/01/12 07:00:11;;;;;;;11.20;6.13;;;3.10;1.00;;;;;;5032634;28;20468;-63
2022/01/12 07:02:38;;;;;;;10.40;6.20;;;3.10;1.00;;;;;;5032993;28;20210;-62
2022/01/12 07:05:05;;;;;;;9.17;6.07;;;3.00;1.00;;;;;;5032757;28;20214;-63
2022/01/12 07:07:32;;;;;;;8.40;5.47;;;3.00;1.00;;;;;;5032415;28;20481;-61
2022/01/12 07:10:00;;;;;;;10.87;6.07;;;3.00;1.00;;;;;;5032061;28;20721;-62
2022/01/12 07:12:27;;;;;;;12.63;6.97;;;3.00;1.00;;;;;;5032911;28;20456;-62
2022/01/12 07:14:55;;;;;;;12.23;6.60;;;2.90;1.00;;;;;;5032482;28;20951;-60
2022/01/12 07:17:21;;;;;;;8.90;6.07;;;3.00;1.00;;;;;;5032377;28;21010;-60
2022/01/12 07:19:48;;;;;;;13.00;6.53;;;3.00;1.00;;;;;;5032119;28;20525;-60
2022/01/12 07:22:15;;;;;;;9.47;6.37;;;3.00;1.00;;;;;;5032473;28;20449;-61
2022/01/12 07:24:41;;;;;;;10.27;6.73;;;3.00;1.00;;;;;;5032803;28;20495;-60
2022/01/12 07:27:08;;;;;;;11.67;6.27;;;3.00;1.00;;;;;;5032350;28;20481;-61
2022/01/12 07:29:35;;;;;;;10.83;6.87;;;3.00;99.90;;;;;;5032140;28;20574;-61
2022/01/12 07:32:03;;;;;;;9.23;6.47;;;3.00;1.00;;;;;;5032418;28;20464;-62
2022/01/12 07:34:30;;;;;;;11.13;6.50;;;3.10;1.00;;;;;;5031872;28;20266;-62
2022/01/12 07:36:57;;;;;;;11.03;6.80;;;3.20;99.90;;;;;;5031304;28;20441;-61
2022/01/12 07:39:24;;;;;;;10.47;6.73;;;3.30;99.90;;;;;;5031694;28;20465;-65
2022/01/12 07:41:50;;;;;;;11.17;6.60;;;3.30;99.90;;;;;;5032299;28;20453;-64
2022/01/12 07:44:17;;;;;;;13.43;5.87;;;3.30;99.90;;;;;;5032060;28;20457;-63
2022/01/12 07:46:44;;;;;;;10.37;6.10;;;3.30;99.90;;;;;;5031355;28;20762;-65
2022/01/12 07:49:12;;;;;;;12.10;7.00;;;3.40;99.90;;;;;;5032352;28;20500;-66
2022/01/12 07:51:38;;;;;;;10.17;6.70;;;3.40;99.90;;;;;;5033115;28;20450;-64
2022/01/12 07:54:05;;;;;;;11.50;6.43;;;3.50;99.90;;;;;;5032221;28;20251;-61
2022/01/12 07:56:32;;;;;;;11.73;6.47;;;3.50;99.90;;;;;;5032388;28;20868;-62
2022/01/12 07:58:58;;;;;;;12.03;6.13;;;3.50;1.00;;;;;;5031637;28;20456;-62
2022/01/12 08:01:25;;;;;;;9.70;6.73;;;3.50;19.10;;;;;;5031818;28;20237;-63
2022/01/12 08:03:52;;;;;;;9.93;6.50;;;3.50;84.90;;;;;;5031243;28;20450;-63
2022/01/12 08:06:20;;;;;;;13.47;6.63;;;3.50;99.90;;;;;;5031575;28;20764;-63
2022/01/12 08:08:47;;;;;;;13.13;7.33;;;3.50;99.90;;;;;;5044508;28;20631;-62
2022/01/12 08:11:14;;;;;;;13.20;7.10;;;3.50;7.60;;;;;;5047158;28;20833;-62
2022/01/12 08:13:42;;;;;;;10.77;6.70;;;3.50;1.00;;;;;;5031939;28;20212;-61
2022/01/12 08:16:09;;;;;;;11.47;7.13;;;3.50;1.00;;;;;;5032159;28;20454;-61
2022/01/12 08:18:36;;;;;;;13.93;7.37;;;3.40;52.30;;;;;;5033502;28;20213;-61
2022/01/12 08:21:05;;;;;;;12.43;6.97;;;3.50;99.90;;;;;;5032302;28;20643;-61
2022/01/12 08:23:33;;;;;;;14.47;7.70;;;3.50;18.90;;;;;;5031671;28;20646;-60
2022/01/12 08:26:01;;;;;;;12.97;7.53;;;3.40;1.00;;;;;;5031458;28;20450;-60
2022/01/12 08:28:28;;;;;;;13.33;8.13;;;3.40;15.30;;;;;;5033722;28;20485;-62
2022/01/12 08:30:54;;;;;;;13.60;6.93;;;3.50;27.70;;;;;;5034545;28;20226;-63
2022/01/12 08:33:21;;;;;;;12.10;7.03;;;3.50;1.00;;;;;;5032053;28;20257;-62
2022/01/12 08:35:48;;;;;;;13.57;7.70;;;3.50;1.00;;;;;;5031454;28;20707;-61
2022/01/12 08:38:15;;;;;;;13.30;7.80;;;3.50;2.00;;;;;;5030713;28;20457;-61
2022/01/12 08:40:43;;;;;;;16.70;7.70;;;3.50;99.90;;;;;;5031299;28;20304;-62
2022/01/12 08:43:10;;;;;;;15.20;7.93;;;3.40;99.90;;;;;;5031279;28;20210;-61
2022/01/12 08:45:37;;;;;;;15.73;8.87;;;3.40;99.90;;;;;;5031087;28;20239;-60
2022/01/12 08:48:04;;;;;;;15.10;8.50;;;3.40;1.00;;;;;;5031543;28;20226;-60
2022/01/12 08:50:31;;;;;;;18.60;9.00;;;3.40;1.00;;;;;;5030896;28;20222;-59
2022/01/12 08:52:57;;;;;;;17.50;8.93;;;3.50;1.00;;;;;;5031141;28;20503;-59
2022/01/12 08:55:25;;;;;;;16.77;8.63;;;3.50;1.00;;;;;;5031264;28;20218;-59
2022/01/12 08:57:54;;;;;;;16.03;8.87;;;3.50;1.00;;;;;;5033458;28;20446;-59
2022/01/12 09:00:21;;;;;;;18.13;9.20;;;3.50;1.00;;;;;;5035101;28;20245;-60
2022/01/12 09:02:47;;;;;;;16.07;8.60;;;3.40;1.00;;;;;;5034948;28;20452;-60
2022/01/12 09:05:15;;;;;;;19.87;9.87;;;3.50;38.10;;;;;;5035290;28;20213;-59
2022/01/12 09:07:42;;;;;;;21.43;9.70;;;3.50;99.90;;;;;;5034688;28;20234;-59
2022/01/12 09:10:09;;;;;;;20.00;9.70;;;3.50;99.90;;;;;;5034523;28;20469;-60
2022/01/12 09:12:36;;;;;;;17.73;9.30;;;3.50;99.90;;;;;;5035070;28;20515;-59
2022/01/12 09:15:05;;;;;;;18.07;9.13;;;3.50;99.90;;;;;;5035073;28;20544;-63
2022/01/12 09:17:32;;;;;;;16.60;8.83;;;3.50;99.90;;;;;;5034755;28;20681;-58
2022/01/12 09:19:58;;;;;;;15.87;8.70;;;3.50;99.90;;;;;;5034550;28;20234;-59
2022/01/12 09:22:25;;;;;;;20.30;9.73;;;3.50;99.90;;;;;;5034911;28;20207;-63
2022/01/12 09:24:53;;;;;;;18.13;9.53;;;3.50;99.90;;;;;;5034642;28;20203;-62
2022/01/12 09:27:20;;;;;;;21.27;11.07;;;3.50;99.90;;;;;;5034576;28;20546;-62
2022/01/12 09:29:48;;;;;;;23.33;10.87;;;3.50;99.90;;;;;;5034692;28;20245;-62
2022/01/12 09:32:16;;;;;;;21.37;10.27;;;3.50;99.90;;;;;;5034514;28;20483;-61
2022/01/12 09:34:43;;;;;;;20.60;10.50;;;3.50;99.90;;;;;;5034461;28;20451;-60
2022/01/12 09:37:09;;;;;;;21.90;10.70;;;3.50;99.90;;;;;;5034373;28;20514;-60
2022/01/12 09:39:36;;;;;;;19.80;10.40;;;3.50;99.90;;;;;;5034218;28;20474;-58
2022/01/12 09:42:04;;;;;;;19.23;10.47;;;3.50;99.90;;;;;;5034956;28;20212;-59
2022/01/12 09:44:32;;;;;;;20.30;10.50;;;3.50;99.90;;;;;;5034508;28;20614;-60
2022/01/12 09:47:00;;;;;;;19.87;10.90;;;3.50;99.90;;;;;;5033846;28;20485;-60
2022/01/12 09:49:30;;;;;;;23.37;10.27;;;3.60;99.90;;;;;;5034101;28;20480;-60
2022/01/12 09:51:58;;;;;;;20.93;10.60;;;3.60;99.90;;;;;;5034533;28;20456;-60
2022/01/12 09:54:26;;;;;;;20.83;10.90;;;3.70;99.90;;;;;;5034236;28;20301;-60
2022/01/12 09:56:53;;;;;;;17.83;10.87;;;3.70;99.90;;;;;;5034345;28;20203;-60
2022/01/12 09:59:22;;;;;;;21.97;10.83;;;3.80;99.90;;;;;;5034881;28;20226;-60
2022/01/12 10:01:49;;;;;;;21.60;10.03;;;3.80;99.90;;;;;;5034613;28;20203;-59
2022/01/12 10:04:18;;;;;;;24.33;11.20;;;3.80;99.90;;;;;;5034247;28;20495;-62
2022/01/12 10:06:48;;;;;;;21.97;10.63;;;3.70;99.90;;;;;;5033101;28;20302;-64
2022/01/12 10:09:16;;;;;;;20.27;9.97;;;3.70;99.90;;;;;;5033342;28;20626;-64
2022/01/12 10:11:53;;;;;;;23.77;11.43;;;3.80;99.90;;;;;;5033854;28;20547;-63
2022/01/12 10:14:20;;;;;;;27.83;11.50;;;3.80;99.90;;;;;;5034098;28;20464;-63
2022/01/12 10:16:57;;;;;;;21.20;11.50;;;3.90;99.90;;;;;;5033768;28;20723;-61
2022/01/12 10:19:28;;;;;;;25.33;12.00;;;3.80;99.90;;;;;;5033469;28;20254;-59
2022/01/12 10:21:57;;;;;;;25.00;11.20;;;3.90;99.90;;;;;;5033951;28;20632;-60
2022/01/12 10:24:25;;;;;;;25.47;11.93;;;3.90;99.90;;;;;;5033419;28;20214;-60
2022/01/12 10:26:54;;;;;;;27.00;11.90;;;3.90;99.90;;;;;;5033549;28;20558;-60
2022/01/12 10:29:24;;;;;;;22.20;11.07;;;3.90;99.90;;;;;;5033074;28;20227;-60
2022/01/12 10:31:53;;;;;;;27.57;12.50;;;3.80;99.90;;;;;;5033471;28;20758;-59
2022/01/12 10:34:22;;;;;;;25.07;10.67;;;3.80;99.90;;;;;;5033555;28;20480;-67
2022/01/12 10:36:51;;;;;;;26.97;12.00;;;4.00;99.90;;;;;;5033277;28;20669;-67
2022/01/12 10:39:21;;;;;;;22.47;10.23;;;4.30;99.90;;;;;;5033151;28;20226;-67
2022/01/12 10:42:00;;;;;;;24.53;13.03;;;4.60;1.00;;;;;;5033249;28;20214;-60
2022/01/12 10:44:31;;;;;;;22.43;11.20;;;4.60;99.90;;;;;;5033368;28;20258;-64
2022/01/12 10:47:06;;;;;;;25.77;11.47;;;4.50;99.90;;;;;;5033002;28;20215;-63
2022/01/12 10:49:36;;;;;;;26.07;11.90;;;4.50;1.00;;;;;;5032898;28;20644;-64
2022/01/12 10:52:04;;;;;;;26.57;11.97;;;4.40;99.10;;;;;;5033233;28;20299;-63
2022/01/12 10:54:45;;;;;;;27.03;11.93;;;4.30;99.90;;;;;;5032759;28;20236;-64
2022/01/12 10:57:22;;;;;;;26.60;11.97;;;4.20;99.90;;;;;;5033098;28;20215;-63
2022/01/12 11:00:08;;;;;;;23.63;11.87;;;4.30;99.90;;;;;;5032923;28;20310;-65
2022/01/12 11:02:36;;;;;;;24.33;12.10;;;4.10;99.90;;;;;;5032942;28;20210;-64
2022/01/12 11:05:05;;;;;;;29.53;12.93;;;4.10;99.90;;;;;;5032562;28;20221;-63
2022/01/12 11:07:31;;;;;;;29.53;13.43;;;4.10;99.90;;;;;;5032622;28;20310;-63
2022/01/12 11:10:02;;;;;;;34.27;14.97;;;4.10;99.90;;;;;;5032956;28;20228;-64
2022/01/12 11:12:29;;;;;;;33.50;14.30;;;4.10;1.00;;;;;;5032221;28;20211;-64
2022/01/12 11:14:57;;;;;;;32.30;13.07;;;4.10;1.00;;;;;;5032776;28;20260;-63
2022/01/12 11:17:24;;;;;;;33.17;14.77;;;4.10;1.00;;;;;;5031993;28;20274;-66
2022/01/12 11:20:08;;;;;;;32.47;14.00;;;4.10;1.00;;;;;;5031189;28;20232;-65
2022/01/12 11:22:48;;;;;;;28.77;13.60;;;4.10;1.00;;;;;;5031919;28;20211;-62
2022/01/12 11:25:21;;;;;;;29.17;11.90;;;4.10;1.00;;;;;;5032581;28;20254;-62
2022/01/12 11:27:51;;;;;;;36.23;13.53;;;4.10;1.00;;;;;;5031917;28;20233;-62
2022/01/12 11:30:20;;;;;;;30.03;12.90;;;4.10;1.00;;;;;;5032377;28;20224;-63
2022/01/12 11:32:56;;;;;;;29.87;13.80;;;4.10;1.00;;;;;;5032136;28;20227;-62
2022/01/12 11:35:26;;;;;;;30.43;13.67;;;4.10;1.00;;;;;;5031840;28;20207;-63
2022/01/12 11:37:57;;;;;;;33.03;13.93;;;4.10;1.00;;;;;;5031924;28;20198;-63
2022/01/12 11:40:37;;;;;;;29.97;14.20;;;4.20;1.00;;;;;;5031276;28;20233;-63
2022/01/12 11:43:16;;;;;;;35.57;15.03;;;4.20;1.00;;;;;;5032329;28;20223;-62
2022/01/12 11:45:42;;;;;;;39.93;15.63;;;4.30;1.00;;;;;;5032116;28;20220;-61
2022/01/12 11:48:09;;;;;;;36.80;14.97;;;4.30;1.00;;;;;;5034161;28;20249;-62
2022/01/12 11:50:36;;;;;;;41.83;16.43;;;4.20;1.00;;;;;;5032603;28;20250;-64
2022/01/12 11:53:03;;;;;;;40.80;16.67;;;4.20;1.00;;;;;;5031991;28;20638;-62
2022/01/12 11:55:37;;;;;;;35.20;16.90;;;4.20;1.00;;;;;;5032336;28;20206;-63
2022/01/12 11:58:05;;;;;;;41.03;17.13;;;4.00;6.90;;;;;;5033933;28;20203;-63
2022/01/12 12:00:33;;;;;;;42.53;16.90;;;3.70;99.90;;;;;;5034094;28;20653;-62
2022/01/12 12:03:01;;;;;;;41.47;16.97;;;3.80;99.90;;;;;;5032470;28;20244;-63
2022/01/12 12:05:29;;;;;;;48.40;18.13;;;3.80;99.90;;;;;;5031180;28;20204;-63
2022/01/12 12:08:01;;;;;;;53.83;18.43;;;3.90;99.90;;;;;;5031049;28;20227;-62
2022/01/12 12:10:29;;;;;;;38.70;17.90;;;3.90;99.90;;;;;;5030834;28;20745;-62
2022/01/12 12:12:59;;;;;;;49.57;19.23;;;3.80;99.90;;;;;;5031598;28;20211;-62
2022/01/12 12:15:27;;;;;;;47.77;19.40;;;3.80;99.90;;;;;;5030987;28;20246;-62
2022/01/12 12:17:57;;;;;;;47.43;18.43;;;3.80;99.90;;;;;;5031095;28;20624;-61
2022/01/12 12:20:25;;;;;;;42.43;17.03;;;3.80;99.90;;;;;;5031365;28;20231;-62
2022/01/12 12:22:52;;;;;;;40.77;18.13;;;3.90;99.90;;;;;;5031109;28;20211;-62
2022/01/12 12:25:21;;;;;;;44.87;19.00;;;4.00;99.90;;;;;;5031289;28;20215;-63
2022/01/12 12:27:54;;;;;;;47.33;19.47;;;4.10;99.90;;;;;;5030696;28;20232;-62
2022/01/12 12:30:23;;;;;;;44.23;18.20;;;4.10;99.90;;;;;;5030603;28;20234;-63
2022/01/12 12:32:52;;;;;;;44.57;19.17;;;4.00;99.90;;;;;;5030629;28;20214;-62
2022/01/12 12:35:22;;;;;;;44.70;18.47;;;4.10;99.90;;;;;;5031299;28;20207;-63
2022/01/12 12:37:52;;;;;;;51.17;20.87;;;4.10;99.90;;;;;;5031682;28;20306;-63
2022/01/12 12:40:23;;;;;;;41.73;17.83;;;4.10;99.90;;;;;;5032546;28;20256;-70
2022/01/12 12:43:02;;;;;;;38.70;16.40;;;4.10;99.90;;;;;;5032438;28;20203;-71
2022/01/12 12:45:38;;;;;;;48.70;18.53;;;4.30;99.90;;;;;;5031762;28;20242;-66
2022/01/12 12:48:07;;;;;;;44.87;18.40;;;4.50;99.90;;;;;;5030795;28;20879;-63
2022/01/12 12:50:33;;;;;;;43.60;18.10;;;4.60;99.90;;;;;;5030590;28;20219;-64
2022/01/12 12:53:06;;;;;;;41.83;18.37;;;4.60;99.90;;;;;;5030854;28;20568;-63
2022/01/12 12:55:38;;;;;;;40.63;17.17;;;4.20;99.90;;;;;;5030567;28;20219;-64
2022/01/12 12:58:05;;;;;;;38.40;18.60;;;4.30;99.90;;;;;;5030191;28;20235;-61
2022/01/12 13:00:33;;;;;;;45.23;18.30;;;4.20;99.90;;;;;;5030427;28;20732;-61
2022/01/12 13:03:03;;;;;;;48.67;18.83;;;4.20;99.90;;;;;;5030698;28;20212;-60
2022/01/12 13:05:31;;;;;;;42.20;18.87;;;4.20;99.90;;;;;;5030806;28;20220;-61
2022/01/12 13:07:58;;;;;;;42.67;17.97;;;4.30;99.90;;;;;;5030158;28;20577;-61
2022/01/12 13:10:27;;;;;;;43.40;17.87;;;4.30;99.90;;;;;;5030600;28;20232;-61
2022/01/12 13:12:55;;;;;;;45.43;18.03;;;4.30;99.90;;;;;;5031225;28;20264;-61
2022/01/12 13:15:25;;;;;;;45.97;19.23;;;4.20;99.90;;;;;;5030225;28;20218;-61
2022/01/12 13:18:02;;;;;;;49.77;19.03;;;4.10;99.90;;;;;;5030627;28;20586;-62
2022/01/12 13:23:17;;;;;;;53.77;19.77;;;4.10;99.90;;;;;;5030663;28;20587;-62
2022/01/12 13:25:44;;;;;;;53.70;19.97;;;4.00;99.90;;;;;;5030667;28;20210;-63
2022/01/12 13:28:11;;;;;;;51.53;19.87;;;3.90;99.90;;;;;;5030065;28;20230;-62
2022/01/12 13:30:50;;;;;;;55.83;21.33;;;3.80;99.90;;;;;;5030474;28;20716;-62
2022/01/12 13:33:27;;;;;;;59.47;21.57;;;3.60;99.90;;;;;;5030305;28;20947;-62
2022/01/12 13:35:54;;;;;;;53.97;22.00;;;3.60;1.00;;;;;;5030626;28;20458;-61
2022/01/12 13:38:31;;;;;;;59.77;22.23;;;3.60;1.00;;;;;;5030054;28;20212;-61
2022/01/12 13:41:07;;;;;;;55.27;21.27;;;3.50;1.00;;;;;;5030601;28;20257;-61
2022/01/12 13:43:35;;;;;;;55.13;21.83;;;3.50;1.00;;;;;;5031324;28;20206;-64
2022/01/12 13:46:12;;;;;;;57.40;19.23;;;3.70;1.00;;;;;;5033779;28;20295;-60
2022/01/12 13:49:02;;;;;;;35.97;15.73;;;3.80;1.00;;;;;;5034560;28;20694;-60
2022/01/12 13:51:36;;;;;;;49.87;19.33;;;3.90;1.00;;;;;;5034569;28;20305;-61
2022/01/12 13:54:05;;;;;;;43.67;17.47;;;4.00;1.00;;;;;;5034733;28;20697;-64
2022/01/12 13:56:34;;;;;;;48.27;19.87;;;3.80;1.00;;;;;;5033758;28;20237;-62
2022/01/12 13:59:01;;;;;;;48.50;20.50;;;4.00;1.00;;;;;;5033418;28;20201;-61
2022/01/12 14:01:31;;;;;;;46.43;20.07;;;4.00;1.00;;;;;;5033450;28;20215;-62
2022/01/12 14:04:09;;;;;;;45.73;18.67;;;4.10;1.00;;;;;;5033824;28;20299;-63
2022/01/12 14:06:39;;;;;;;39.30;16.93;;;4.20;1.00;;;;;;5033752;28;20236;-63
2022/01/12 14:09:13;;;;;;;41.47;16.33;;;4.20;99.90;;;;;;5033334;28;20234;-63